sensor_id;sensor_type;location;lat;lon;timestamp;temperature;humidity
73137;DHT22;67767;45.636;11.756;2023-09-07T00:01:26;23.10;68.40
73137;DHT22;67767;45.636;11.756;2023-09-07T00:03:52;23.20;68.00
73137;DHT22;67767;45.636;11.756;2023-09-07T00:06:17;23.20;67.90
73137;DHT22;67767;45.636;11.756;2023-09-07T00:08:44;23.10;68.60
73137;DHT22;67767;45.636;11.756;2023-09-07T00:11:09;23.20;68.10
73137;DHT22;67767;45.636;11.756;2023-09-07T00:13:36;23.20;68.00
73137;DHT22;67767;45.636;11.756;2023-09-07T00:16:05;23.20;68.30
73137;DHT22;67767;45.636;11.756;2023-09-07T00:18:32;23.20;68.40
73137;DHT22;67767;45.636;11.756;2023-09-07T00:20:58;23.10;68.70
73137;DHT22;67767;45.636;11.756;2023-09-07T00:23:25;23.20;68.30
73137;DHT22;67767;45.636;11.756;2023-09-07T00:25:51;23.20;68.70
73137;DHT22;67767;45.636;11.756;2023-09-07T00:28:16;23.20;68.20
73137;DHT22;67767;45.636;11.756;2023-09-07T00:30:42;23.20;68.40
73137;DHT22;67767;45.636;11.756;2023-09-07T00:33:08;23.10;67.90
73137;DHT22;67767;45.636;11.756;2023-09-07T00:35:34;23.20;68.30
73137;DHT22;67767;45.636;11.756;2023-09-07T00:38:00;23.20;67.60
73137;DHT22;67767;45.636;11.756;2023-09-07T00:40:26;23.30;67.50
73137;DHT22;67767;45.636;11.756;2023-09-07T00:42:52;23.20;67.40
73137;DHT22;67767;45.636;11.756;2023-09-07T00:45:18;23.30;67.50
73137;DHT22;67767;45.636;11.756;2023-09-07T00:47:44;23.30;67.40
73137;DHT22;67767;45.636;11.756;2023-09-07T00:50:10;23.20;67.50
73137;DHT22;67767;45.636;11.756;2023-09-07T00:52:40;23.30;67.10
73137;DHT22;67767;45.636;11.756;2023-09-07T00:55:07;23.20;67.70
73137;DHT22;67767;45.636;11.756;2023-09-07T00:57:33;23.10;67.70
73137;DHT22;67767;45.636;11.756;2023-09-07T00:59:59;23.10;67.90
73137;DHT22;67767;45.636;11.756;2023-09-07T01:02:25;23.00;68.10
73137;DHT22;67767;45.636;11.756;2023-09-07T01:04:51;23.00;68.00
73137;DHT22;67767;45.636;11.756;2023-09-07T01:07:20;23.00;68.20
73137;DHT22;67767;45.636;11.756;2023-09-07T01:09:53;23.00;68.30
73137;DHT22;67767;45.636;11.756;2023-09-07T01:12:20;23.00;68.50
73137;DHT22;67767;45.636;11.756;2023-09-07T01:14:45;22.90;69.30
73137;DHT22;67767;45.636;11.756;2023-09-07T01:17:11;22.80;69.60
73137;DHT22;67767;45.636;11.756;2023-09-07T01:19:39;22.80;69.90
73137;DHT22;67767;45.636;11.756;2023-09-07T01:22:07;22.60;70.00
73137;DHT22;67767;45.636;11.756;2023-09-07T01:24:33;22.70;70.10
73137;DHT22;67767;45.636;11.756;2023-09-07T01:27:01;22.50;70.40
73137;DHT22;67767;45.636;11.756;2023-09-07T01:29:29;22.50;70.30
73137;DHT22;67767;45.636;11.756;2023-09-07T01:31:55;22.40;70.40
73137;DHT22;67767;45.636;11.756;2023-09-07T01:34:22;22.40;70.40
73137;DHT22;67767;45.636;11.756;2023-09-07T01:36:49;22.50;70.40
73137;DHT22;67767;45.636;11.756;2023-09-07T01:39:14;22.40;70.30
73137;DHT22;67767;45.636;11.756;2023-09-07T01:41:40;22.40;70.50
73137;DHT22;67767;45.636;11.756;2023-09-07T01:44:06;22.30;70.50
73137;DHT22;67767;45.636;11.756;2023-09-07T01:46:31;22.50;70.50
73137;DHT22;67767;45.636;11.756;2023-09-07T01:48:57;22.30;70.60
73137;DHT22;67767;45.636;11.756;2023-09-07T01:51:23;22.30;70.80
73137;DHT22;67767;45.636;11.756;2023-09-07T01:53:49;22.30;70.80
73137;DHT22;67767;45.636;11.756;2023-09-07T01:56:17;22.20;70.70
73137;DHT22;67767;45.636;11.756;2023-09-07T01:58:43;22.20;70.80
73137;DHT22;67767;45.636;11.756;2023-09-07T02:01:21;22.20;70.80
73137;DHT22;67767;45.636;11.756;2023-09-07T02:03:47;22.20;71.00
73137;DHT22;67767;45.636;11.756;2023-09-07T02:06:13;22.10;71.10
73137;DHT22;67767;45.636;11.756;2023-09-07T02:08:38;22.10;71.00
73137;DHT22;67767;45.636;11.756;2023-09-07T02:11:05;22.10;71.10
73137;DHT22;67767;45.636;11.756;2023-09-07T02:13:31;22.10;71.20
73137;DHT22;67767;45.636;11.756;2023-09-07T02:15:57;22.10;71.00
73137;DHT22;67767;45.636;11.756;2023-09-07T02:18:22;22.20;70.80
73137;DHT22;67767;45.636;11.756;2023-09-07T02:20:48;22.20;70.70
73137;DHT22;67767;45.636;11.756;2023-09-07T02:23:14;22.30;70.80
73137;DHT22;67767;45.636;11.756;2023-09-07T02:25:40;22.10;71.30
73137;DHT22;67767;45.636;11.756;2023-09-07T02:28:06;22.00;71.30
73137;DHT22;67767;45.636;11.756;2023-09-07T02:30:32;21.90;71.50
73137;DHT22;67767;45.636;11.756;2023-09-07T02:32:57;21.60;71.80
73137;DHT22;67767;45.636;11.756;2023-09-07T02:35:23;21.50;72.30
73137;DHT22;67767;45.636;11.756;2023-09-07T02:37:49;21.70;72.10
73137;DHT22;67767;45.636;11.756;2023-09-07T02:40:14;21.70;72.20
73137;DHT22;67767;45.636;11.756;2023-09-07T02:42:41;21.70;72.30
73137;DHT22;67767;45.636;11.756;2023-09-07T02:45:11;21.80;72.30
73137;DHT22;67767;45.636;11.756;2023-09-07T02:47:37;21.90;72.30
73137;DHT22;67767;45.636;11.756;2023-09-07T02:50:03;21.90;72.40
73137;DHT22;67767;45.636;11.756;2023-09-07T02:52:29;21.90;72.60
73137;DHT22;67767;45.636;11.756;2023-09-07T02:54:55;21.70;72.50
73137;DHT22;67767;45.636;11.756;2023-09-07T02:57:20;21.80;72.30
73137;DHT22;67767;45.636;11.756;2023-09-07T02:59:46;21.70;72.50
73137;DHT22;67767;45.636;11.756;2023-09-07T03:02:12;21.70;72.30
73137;DHT22;67767;45.636;11.756;2023-09-07T03:04:37;21.70;72.80
73137;DHT22;67767;45.636;11.756;2023-09-07T03:07:03;21.60;72.80
73137;DHT22;67767;45.636;11.756;2023-09-07T03:09:29;21.60;72.00
73137;DHT22;67767;45.636;11.756;2023-09-07T03:11:54;21.70;72.10
73137;DHT22;67767;45.636;11.756;2023-09-07T03:14:20;21.70;72.50
73137;DHT22;67767;45.636;11.756;2023-09-07T03:16:46;21.50;72.80
73137;DHT22;67767;45.636;11.756;2023-09-07T03:19:14;21.60;72.70
73137;DHT22;67767;45.636;11.756;2023-09-07T03:21:39;21.50;72.90
73137;DHT22;67767;45.636;11.756;2023-09-07T03:24:05;21.30;73.20
73137;DHT22;67767;45.636;11.756;2023-09-07T03:26:31;21.20;73.70
73137;DHT22;67767;45.636;11.756;2023-09-07T03:28:57;21.00;74.30
73137;DHT22;67767;45.636;11.756;2023-09-07T03:31:23;20.80;75.80
73137;DHT22;67767;45.636;11.756;2023-09-07T03:33:49;20.80;76.20
73137;DHT22;67767;45.636;11.756;2023-09-07T03:36:15;20.70;76.30
73137;DHT22;67767;45.636;11.756;2023-09-07T03:38:41;20.60;76.70
73137;DHT22;67767;45.636;11.756;2023-09-07T03:41:06;20.70;76.50
73137;DHT22;67767;45.636;11.756;2023-09-07T03:43:32;20.60;76.20
73137;DHT22;67767;45.636;11.756;2023-09-07T03:45:58;20.70;76.00
73137;DHT22;67767;45.636;11.756;2023-09-07T03:48:23;20.70;75.70
73137;DHT22;67767;45.636;11.756;2023-09-07T03:50:49;20.80;75.70
73137;DHT22;67767;45.636;11.756;2023-09-07T03:53:15;20.60;75.70
73137;DHT22;67767;45.636;11.756;2023-09-07T03:55:42;20.60;75.80
73137;DHT22;67767;45.636;11.756;2023-09-07T03:58:12;20.80;75.70
73137;DHT22;67767;45.636;11.756;2023-09-07T04:00:41;20.70;75.70
73137;DHT22;67767;45.636;11.756;2023-09-07T04:03:07;20.70;75.70
73137;DHT22;67767;45.636;11.756;2023-09-07T04:05:33;20.70;75.70
73137;DHT22;67767;45.636;11.756;2023-09-07T04:07:59;20.70;75.80
73137;DHT22;67767;45.636;11.756;2023-09-07T04:10:26;20.70;75.80
73137;DHT22;67767;45.636;11.756;2023-09-07T04:12:52;20.70;75.90
73137;DHT22;67767;45.636;11.756;2023-09-07T04:15:17;20.50;75.90
73137;DHT22;67767;45.636;11.756;2023-09-07T04:17:43;20.60;76.00
73137;DHT22;67767;45.636;11.756;2023-09-07T04:20:10;20.70;75.80
73137;DHT22;67767;45.636;11.756;2023-09-07T04:22:38;20.70;75.70
73137;DHT22;67767;45.636;11.756;2023-09-07T04:25:04;20.60;75.90
73137;DHT22;67767;45.636;11.756;2023-09-07T04:27:31;20.50;76.00
73137;DHT22;67767;45.636;11.756;2023-09-07T04:29:56;20.60;75.80
73137;DHT22;67767;45.636;11.756;2023-09-07T04:32:22;20.60;75.70
73137;DHT22;67767;45.636;11.756;2023-09-07T04:34:52;20.60;75.70
73137;DHT22;67767;45.636;11.756;2023-09-07T04:37:18;20.70;75.60
73137;DHT22;67767;45.636;11.756;2023-09-07T04:39:44;20.70;75.30
73137;DHT22;67767;45.636;11.756;2023-09-07T04:42:09;20.60;75.30
73137;DHT22;67767;45.636;11.756;2023-09-07T04:44:35;20.70;75.40
73137;DHT22;67767;45.636;11.756;2023-09-07T04:47:01;20.70;75.30
73137;DHT22;67767;45.636;11.756;2023-09-07T04:49:26;20.80;75.30
73137;DHT22;67767;45.636;11.756;2023-09-07T04:51:55;20.80;75.20
73137;DHT22;67767;45.636;11.756;2023-09-07T04:54:20;20.70;75.20
73137;DHT22;67767;45.636;11.756;2023-09-07T04:56:46;20.80;75.40
73137;DHT22;67767;45.636;11.756;2023-09-07T04:59:12;20.80;75.40
73137;DHT22;67767;45.636;11.756;2023-09-07T05:01:37;20.80;75.00
73137;DHT22;67767;45.636;11.756;2023-09-07T05:04:03;20.80;75.10
73137;DHT22;67767;45.636;11.756;2023-09-07T05:06:29;20.90;74.90
73137;DHT22;67767;45.636;11.756;2023-09-07T05:08:55;20.90;73.50
73137;DHT22;67767;45.636;11.756;2023-09-07T05:11:20;20.90;73.60
73137;DHT22;67767;45.636;11.756;2023-09-07T05:13:46;20.90;73.50
73137;DHT22;67767;45.636;11.756;2023-09-07T05:16:12;21.10;73.50
73137;DHT22;67767;45.636;11.756;2023-09-07T05:18:37;21.10;73.20
73137;DHT22;67767;45.636;11.756;2023-09-07T05:21:13;21.20;73.00
73137;DHT22;67767;45.636;11.756;2023-09-07T05:23:39;21.20;72.90
73137;DHT22;67767;45.636;11.756;2023-09-07T05:26:05;21.30;72.90
73137;DHT22;67767;45.636;11.756;2023-09-07T05:28:31;21.40;72.70
73137;DHT22;67767;45.636;11.756;2023-09-07T05:30:57;21.40;72.90
73137;DHT22;67767;45.636;11.756;2023-09-07T05:33:22;21.60;72.20
73137;DHT22;67767;45.636;11.756;2023-09-07T05:35:48;21.60;72.20
73137;DHT22;67767;45.636;11.756;2023-09-07T05:38:14;21.70;72.10
73137;DHT22;67767;45.636;11.756;2023-09-07T05:40:42;21.70;72.10
73137;DHT22;67767;45.636;11.756;2023-09-07T05:43:08;21.90;71.90
73137;DHT22;67767;45.636;11.756;2023-09-07T05:45:40;21.90;71.90
73137;DHT22;67767;45.636;11.756;2023-09-07T05:48:07;22.00;71.70
73137;DHT22;67767;45.636;11.756;2023-09-07T05:50:37;22.10;71.70
73137;DHT22;67767;45.636;11.756;2023-09-07T05:53:03;22.20;71.60
73137;DHT22;67767;45.636;11.756;2023-09-07T05:55:30;22.30;71.60
73137;DHT22;67767;45.636;11.756;2023-09-07T05:57:56;22.50;71.60
73137;DHT22;67767;45.636;11.756;2023-09-07T06:00:22;22.60;71.30
73137;DHT22;67767;45.636;11.756;2023-09-07T06:02:49;22.70;71.20
73137;DHT22;67767;45.636;11.756;2023-09-07T06:05:15;22.90;71.10
73137;DHT22;67767;45.636;11.756;2023-09-07T06:07:41;22.90;71.10
73137;DHT22;67767;45.636;11.756;2023-09-07T06:10:07;23.00;71.10
73137;DHT22;67767;45.636;11.756;2023-09-07T06:12:33;23.10;71.30
73137;DHT22;67767;45.636;11.756;2023-09-07T06:15:02;23.20;71.00
73137;DHT22;67767;45.636;11.756;2023-09-07T06:17:29;23.40;70.70
73137;DHT22;67767;45.636;11.756;2023-09-07T06:19:55;23.50;70.60
73137;DHT22;67767;45.636;11.756;2023-09-07T06:22:21;23.70;69.70
73137;DHT22;67767;45.636;11.756;2023-09-07T06:24:46;23.90;68.80
73137;DHT22;67767;45.636;11.756;2023-09-07T06:27:12;24.10;68.30
73137;DHT22;67767;45.636;11.756;2023-09-07T06:29:37;24.10;68.10
73137;DHT22;67767;45.636;11.756;2023-09-07T06:32:03;24.20;67.50
73137;DHT22;67767;45.636;11.756;2023-09-07T06:34:29;24.20;67.90
73137;DHT22;67767;45.636;11.756;2023-09-07T06:36:55;24.40;68.10
73137;DHT22;67767;45.636;11.756;2023-09-07T06:39:20;24.60;68.00
73137;DHT22;67767;45.636;11.756;2023-09-07T06:41:46;24.70;67.10
73137;DHT22;67767;45.636;11.756;2023-09-07T06:44:12;24.90;66.60
73137;DHT22;67767;45.636;11.756;2023-09-07T06:46:38;24.90;67.00
73137;DHT22;67767;45.636;11.756;2023-09-07T06:49:04;24.90;66.90
73137;DHT22;67767;45.636;11.756;2023-09-07T06:51:30;25.00;66.70
73137;DHT22;67767;45.636;11.756;2023-09-07T06:53:57;25.20;66.50
73137;DHT22;67767;45.636;11.756;2023-09-07T06:56:22;25.30;65.90
73137;DHT22;67767;45.636;11.756;2023-09-07T06:58:48;25.50;65.20
73137;DHT22;67767;45.636;11.756;2023-09-07T07:01:14;25.50;65.50
73137;DHT22;67767;45.636;11.756;2023-09-07T07:03:41;25.90;65.00
73137;DHT22;67767;45.636;11.756;2023-09-07T07:06:07;26.30;64.40
73137;DHT22;67767;45.636;11.756;2023-09-07T07:08:32;26.10;63.30
73137;DHT22;67767;45.636;11.756;2023-09-07T07:10:58;26.40;61.50
73137;DHT22;67767;45.636;11.756;2023-09-07T07:13:24;26.70;61.40
73137;DHT22;67767;45.636;11.756;2023-09-07T07:15:49;26.50;61.20
73137;DHT22;67767;45.636;11.756;2023-09-07T07:18:15;26.50;61.40
73137;DHT22;67767;45.636;11.756;2023-09-07T07:20:43;26.60;61.30
73137;DHT22;67767;45.636;11.756;2023-09-07T07:23:09;26.90;61.20
73137;DHT22;67767;45.636;11.756;2023-09-07T07:25:35;26.80;59.30
73137;DHT22;67767;45.636;11.756;2023-09-07T07:28:02;27.00;59.00
73137;DHT22;67767;45.636;11.756;2023-09-07T07:30:31;27.10;57.90
73137;DHT22;67767;45.636;11.756;2023-09-07T07:32:57;27.30;57.30
73137;DHT22;67767;45.636;11.756;2023-09-07T07:35:23;27.40;57.60
73137;DHT22;67767;45.636;11.756;2023-09-07T07:37:52;27.60;57.30
73137;DHT22;67767;45.636;11.756;2023-09-07T07:40:17;27.70;57.10
73137;DHT22;67767;45.636;11.756;2023-09-07T07:42:44;27.70;57.20
73137;DHT22;67767;45.636;11.756;2023-09-07T07:45:10;27.90;55.70
73137;DHT22;67767;45.636;11.756;2023-09-07T07:47:35;28.10;54.10
73137;DHT22;67767;45.636;11.756;2023-09-07T07:50:01;28.10;53.10
73137;DHT22;67767;45.636;11.756;2023-09-07T07:52:27;28.20;53.50
73137;DHT22;67767;45.636;11.756;2023-09-07T07:54:53;28.20;54.90
73137;DHT22;67767;45.636;11.756;2023-09-07T07:57:19;28.10;53.60
73137;DHT22;67767;45.636;11.756;2023-09-07T07:59:45;28.20;53.90
73137;DHT22;67767;45.636;11.756;2023-09-07T08:02:10;28.40;53.70
73137;DHT22;67767;45.636;11.756;2023-09-07T08:04:36;28.50;52.50
73137;DHT22;67767;45.636;11.756;2023-09-07T08:07:01;28.30;52.40
73137;DHT22;67767;45.636;11.756;2023-09-07T08:09:31;28.50;52.40
73137;DHT22;67767;45.636;11.756;2023-09-07T08:11:57;28.40;52.40
73137;DHT22;67767;45.636;11.756;2023-09-07T08:14:24;28.60;52.20
73137;DHT22;67767;45.636;11.756;2023-09-07T08:16:50;28.70;52.50
73137;DHT22;67767;45.636;11.756;2023-09-07T08:19:16;28.80;52.40
73137;DHT22;67767;45.636;11.756;2023-09-07T08:21:42;28.80;50.60
73137;DHT22;67767;45.636;11.756;2023-09-07T08:24:09;28.80;50.50
73137;DHT22;67767;45.636;11.756;2023-09-07T08:26:38;28.70;50.40
73137;DHT22;67767;45.636;11.756;2023-09-07T08:29:05;28.90;50.20
73137;DHT22;67767;45.636;11.756;2023-09-07T08:31:35;29.00;50.40
73137;DHT22;67767;45.636;11.756;2023-09-07T08:34:01;29.10;49.40
73137;DHT22;67767;45.636;11.756;2023-09-07T08:36:32;29.10;48.80
73137;DHT22;67767;45.636;11.756;2023-09-07T08:39:03;29.30;48.70
73137;DHT22;67767;45.636;11.756;2023-09-07T08:41:36;29.40;48.50
73137;DHT22;67767;45.636;11.756;2023-09-07T08:44:08;29.50;47.20
73137;DHT22;67767;45.636;11.756;2023-09-07T08:46:35;29.60;47.20
73137;DHT22;67767;45.636;11.756;2023-09-07T08:49:03;29.40;46.70
73137;DHT22;67767;45.636;11.756;2023-09-07T08:51:29;29.80;46.50
73137;DHT22;67767;45.636;11.756;2023-09-07T08:53:55;29.90;46.50
73137;DHT22;67767;45.636;11.756;2023-09-07T08:56:23;29.80;46.80
73137;DHT22;67767;45.636;11.756;2023-09-07T08:58:49;29.50;46.90
73137;DHT22;67767;45.636;11.756;2023-09-07T09:01:15;29.80;47.30
73137;DHT22;67767;45.636;11.756;2023-09-07T09:03:45;29.80;46.30
73137;DHT22;67767;45.636;11.756;2023-09-07T09:06:12;29.90;45.40
73137;DHT22;67767;45.636;11.756;2023-09-07T09:08:45;30.20;45.90
73137;DHT22;67767;45.636;11.756;2023-09-07T09:11:12;30.10;46.30
73137;DHT22;67767;45.636;11.756;2023-09-07T09:13:40;30.30;45.60
73137;DHT22;67767;45.636;11.756;2023-09-07T09:16:06;30.30;45.00
73137;DHT22;67767;45.636;11.756;2023-09-07T09:18:32;30.20;45.30
73137;DHT22;67767;45.636;11.756;2023-09-07T09:20:58;30.30;46.10
73137;DHT22;67767;45.636;11.756;2023-09-07T09:23:36;30.40;45.90
73137;DHT22;67767;45.636;11.756;2023-09-07T09:26:03;30.40;45.10
73137;DHT22;67767;45.636;11.756;2023-09-07T09:28:31;30.50;44.50
73137;DHT22;67767;45.636;11.756;2023-09-07T09:31:01;30.50;44.00
73137;DHT22;67767;45.636;11.756;2023-09-07T09:33:30;30.70;44.00
73137;DHT22;67767;45.636;11.756;2023-09-07T09:35:56;30.70;44.00
73137;DHT22;67767;45.636;11.756;2023-09-07T09:38:22;30.70;44.10
73137;DHT22;67767;45.636;11.756;2023-09-07T09:40:48;30.70;43.60
73137;DHT22;67767;45.636;11.756;2023-09-07T09:43:14;30.80;43.10
73137;DHT22;67767;45.636;11.756;2023-09-07T09:45:39;30.60;43.30
73137;DHT22;67767;45.636;11.756;2023-09-07T09:48:06;30.60;43.30
73137;DHT22;67767;45.636;11.756;2023-09-07T09:50:32;30.50;43.50
73137;DHT22;67767;45.636;11.756;2023-09-07T09:53:07;30.70;43.00
73137;DHT22;67767;45.636;11.756;2023-09-07T09:55:36;30.80;42.60
73137;DHT22;67767;45.636;11.756;2023-09-07T09:58:03;30.60;42.40
73137;DHT22;67767;45.636;11.756;2023-09-07T10:00:29;30.60;42.60
73137;DHT22;67767;45.636;11.756;2023-09-07T10:03:12;30.70;41.20
73137;DHT22;67767;45.636;11.756;2023-09-07T10:05:38;30.90;40.00
73137;DHT22;67767;45.636;11.756;2023-09-07T10:08:14;31.10;40.60
73137;DHT22;67767;45.636;11.756;2023-09-07T10:10:41;30.90;39.30
73137;DHT22;67767;45.636;11.756;2023-09-07T10:13:08;31.20;41.10
73137;DHT22;67767;45.636;11.756;2023-09-07T10:15:34;31.10;41.50
73137;DHT22;67767;45.636;11.756;2023-09-07T10:18:14;31.20;42.10
73137;DHT22;67767;45.636;11.756;2023-09-07T10:20:59;31.10;41.30
73137;DHT22;67767;45.636;11.756;2023-09-07T10:23:41;31.30;41.40
73137;DHT22;67767;45.636;11.756;2023-09-07T10:26:17;31.40;39.60
73137;DHT22;67767;45.636;11.756;2023-09-07T10:28:44;31.30;41.70
73137;DHT22;67767;45.636;11.756;2023-09-07T10:31:17;31.40;41.50
73137;DHT22;67767;45.636;11.756;2023-09-07T10:33:44;31.10;39.70
73137;DHT22;67767;45.636;11.756;2023-09-07T10:36:24;31.30;39.50
73137;DHT22;67767;45.636;11.756;2023-09-07T10:38:51;31.40;40.90
73137;DHT22;67767;45.636;11.756;2023-09-07T10:41:20;31.20;39.90
73137;DHT22;67767;45.636;11.756;2023-09-07T10:43:53;31.40;41.60
73137;DHT22;67767;45.636;11.756;2023-09-07T10:46:23;31.70;39.60
73137;DHT22;67767;45.636;11.756;2023-09-07T10:48:53;31.90;39.60
73137;DHT22;67767;45.636;11.756;2023-09-07T10:51:19;31.60;41.40
73137;DHT22;67767;45.636;11.756;2023-09-07T10:53:45;31.60;41.00
73137;DHT22;67767;45.636;11.756;2023-09-07T10:56:11;31.80;41.30
73137;DHT22;67767;45.636;11.756;2023-09-07T10:58:37;31.60;41.20
73137;DHT22;67767;45.636;11.756;2023-09-07T11:01:05;31.70;41.10
73137;DHT22;67767;45.636;11.756;2023-09-07T11:03:31;31.40;38.90
73137;DHT22;67767;45.636;11.756;2023-09-07T11:06:01;31.70;41.20
73137;DHT22;67767;45.636;11.756;2023-09-07T11:08:32;31.90;39.30
73137;DHT22;67767;45.636;11.756;2023-09-07T11:10:59;31.80;37.90
73137;DHT22;67767;45.636;11.756;2023-09-07T11:13:26;32.00;36.70
73137;DHT22;67767;45.636;11.756;2023-09-07T11:15:59;31.90;36.80
73137;DHT22;67767;45.636;11.756;2023-09-07T11:18:25;32.40;36.40
73137;DHT22;67767;45.636;11.756;2023-09-07T11:20:52;32.50;38.00
73137;DHT22;67767;45.636;11.756;2023-09-07T11:23:19;32.70;36.10
73137;DHT22;67767;45.636;11.756;2023-09-07T11:25:47;33.00;35.40
73137;DHT22;67767;45.636;11.756;2023-09-07T11:28:16;33.40;35.50
73137;DHT22;67767;45.636;11.756;2023-09-07T11:30:50;33.80;36.50
73137;DHT22;67767;45.636;11.756;2023-09-07T11:33:16;34.20;36.20
73137;DHT22;67767;45.636;11.756;2023-09-07T11:35:42;34.60;34.30
73137;DHT22;67767;45.636;11.756;2023-09-07T11:38:08;34.60;33.80
73137;DHT22;67767;45.636;11.756;2023-09-07T11:40:36;34.40;33.40
73137;DHT22;67767;45.636;11.756;2023-09-07T11:43:02;34.70;33.00
73137;DHT22;67767;45.636;11.756;2023-09-07T11:45:28;34.50;33.50
73137;DHT22;67767;45.636;11.756;2023-09-07T11:47:53;34.60;33.40
73137;DHT22;67767;45.636;11.756;2023-09-07T11:50:19;34.60;34.70
73137;DHT22;67767;45.636;11.756;2023-09-07T11:52:46;34.90;34.30
73137;DHT22;67767;45.636;11.756;2023-09-07T11:55:14;35.00;33.60
73137;DHT22;67767;45.636;11.756;2023-09-07T11:57:40;34.90;31.20
73137;DHT22;67767;45.636;11.756;2023-09-07T12:00:07;35.20;29.90
73137;DHT22;67767;45.636;11.756;2023-09-07T12:02:35;35.00;31.10
73137;DHT22;67767;45.636;11.756;2023-09-07T12:05:01;34.80;31.50
73137;DHT22;67767;45.636;11.756;2023-09-07T12:07:29;35.20;32.00
73137;DHT22;67767;45.636;11.756;2023-09-07T12:09:55;35.20;31.60
73137;DHT22;67767;45.636;11.756;2023-09-07T12:12:23;35.30;31.30
73137;DHT22;67767;45.636;11.756;2023-09-07T12:14:48;35.70;30.70
73137;DHT22;67767;45.636;11.756;2023-09-07T12:17:14;35.90;30.60
73137;DHT22;67767;45.636;11.756;2023-09-07T12:19:40;35.50;31.10
73137;DHT22;67767;45.636;11.756;2023-09-07T12:22:07;35.70;31.20
73137;DHT22;67767;45.636;11.756;2023-09-07T12:24:33;35.70;29.70
73137;DHT22;67767;45.636;11.756;2023-09-07T12:26:59;35.90;30.20
73137;DHT22;67767;45.636;11.756;2023-09-07T12:29:27;36.30;29.80
73137;DHT22;67767;45.636;11.756;2023-09-07T12:31:53;36.00;30.50
73137;DHT22;67767;45.636;11.756;2023-09-07T12:34:19;36.70;30.10
73137;DHT22;67767;45.636;11.756;2023-09-07T12:36:44;36.30;29.40
73137;DHT22;67767;45.636;11.756;2023-09-07T12:39:10;36.90;30.10
73137;DHT22;67767;45.636;11.756;2023-09-07T12:41:38;37.70;29.30
73137;DHT22;67767;45.636;11.756;2023-09-07T12:44:04;37.50;29.10
73137;DHT22;67767;45.636;11.756;2023-09-07T12:46:31;37.70;27.80
73137;DHT22;67767;45.636;11.756;2023-09-07T12:48:56;37.80;28.50
73137;DHT22;67767;45.636;11.756;2023-09-07T12:51:22;37.50;28.10
73137;DHT22;67767;45.636;11.756;2023-09-07T12:53:47;38.10;28.60
73137;DHT22;67767;45.636;11.756;2023-09-07T12:56:13;38.10;28.60
73137;DHT22;67767;45.636;11.756;2023-09-07T12:58:41;38.00;28.30
73137;DHT22;67767;45.636;11.756;2023-09-07T13:01:07;38.50;28.20
73137;DHT22;67767;45.636;11.756;2023-09-07T13:03:36;38.30;28.40
73137;DHT22;67767;45.636;11.756;2023-09-07T13:06:02;38.00;27.50
73137;DHT22;67767;45.636;11.756;2023-09-07T13:08:28;38.10;27.90
73137;DHT22;67767;45.636;11.756;2023-09-07T13:10:55;38.30;28.10
73137;DHT22;67767;45.636;11.756;2023-09-07T13:13:21;38.00;27.80
73137;DHT22;67767;45.636;11.756;2023-09-07T13:15:48;38.30;27.10
73137;DHT22;67767;45.636;11.756;2023-09-07T13:18:13;37.90;27.40
73137;DHT22;67767;45.636;11.756;2023-09-07T13:20:39;38.30;26.60
73137;DHT22;67767;45.636;11.756;2023-09-07T13:23:05;38.60;26.60
73137;DHT22;67767;45.636;11.756;2023-09-07T13:25:31;38.50;27.00
73137;DHT22;67767;45.636;11.756;2023-09-07T13:27:56;38.80;27.10
73137;DHT22;67767;45.636;11.756;2023-09-07T13:30:22;39.00;26.20
73137;DHT22;67767;45.636;11.756;2023-09-07T13:32:48;39.30;27.10
73137;DHT22;67767;45.636;11.756;2023-09-07T13:35:15;38.70;26.90
73137;DHT22;67767;45.636;11.756;2023-09-07T13:37:41;38.70;28.20
73137;DHT22;67767;45.636;11.756;2023-09-07T13:40:07;38.90;27.30
73137;DHT22;67767;45.636;11.756;2023-09-07T13:42:34;39.10;27.00
73137;DHT22;67767;45.636;11.756;2023-09-07T13:44:59;39.00;26.40
73137;DHT22;67767;45.636;11.756;2023-09-07T13:47:25;39.30;26.20
73137;DHT22;67767;45.636;11.756;2023-09-07T13:49:51;39.20;26.40
73137;DHT22;67767;45.636;11.756;2023-09-07T13:52:16;38.70;26.70
73137;DHT22;67767;45.636;11.756;2023-09-07T13:54:42;39.10;26.80
73137;DHT22;67767;45.636;11.756;2023-09-07T13:57:08;38.70;27.10
73137;DHT22;67767;45.636;11.756;2023-09-07T13:59:34;39.20;26.90
73137;DHT22;67767;45.636;11.756;2023-09-07T14:02:00;39.50;26.70
73137;DHT22;67767;45.636;11.756;2023-09-07T14:04:26;39.00;24.90
73137;DHT22;67767;45.636;11.756;2023-09-07T14:06:52;39.10;26.20
73137;DHT22;67767;45.636;11.756;2023-09-07T14:09:18;39.20;26.80
73137;DHT22;67767;45.636;11.756;2023-09-07T14:11:44;39.60;26.20
73137;DHT22;67767;45.636;11.756;2023-09-07T14:14:10;39.70;25.30
73137;DHT22;67767;45.636;11.756;2023-09-07T14:16:36;39.80;25.60
73137;DHT22;67767;45.636;11.756;2023-09-07T14:19:02;40.10;25.40
73137;DHT22;67767;45.636;11.756;2023-09-07T14:21:28;39.70;26.50
73137;DHT22;67767;45.636;11.756;2023-09-07T14:23:53;39.30;26.50
73137;DHT22;67767;45.636;11.756;2023-09-07T14:26:19;39.10;26.00
73137;DHT22;67767;45.636;11.756;2023-09-07T14:28:45;39.70;25.50
73137;DHT22;67767;45.636;11.756;2023-09-07T14:31:10;39.50;26.40
73137;DHT22;67767;45.636;11.756;2023-09-07T14:33:37;39.80;26.40
73137;DHT22;67767;45.636;11.756;2023-09-07T14:36:08;39.60;25.50
73137;DHT22;67767;45.636;11.756;2023-09-07T14:38:35;39.60;25.70
73137;DHT22;67767;45.636;11.756;2023-09-07T14:41:07;39.60;25.30
73137;DHT22;67767;45.636;11.756;2023-09-07T14:43:33;38.80;25.80
73137;DHT22;67767;45.636;11.756;2023-09-07T14:45:59;38.70;26.00
73137;DHT22;67767;45.636;11.756;2023-09-07T14:48:24;38.40;25.00
73137;DHT22;67767;45.636;11.756;2023-09-07T14:50:50;38.90;25.50
73137;DHT22;67767;45.636;11.756;2023-09-07T14:53:16;37.90;26.30
73137;DHT22;67767;45.636;11.756;2023-09-07T14:55:44;37.00;26.90
73137;DHT22;67767;45.636;11.756;2023-09-07T14:58:09;36.80;28.10
73137;DHT22;67767;45.636;11.756;2023-09-07T15:00:35;36.50;28.10
73137;DHT22;67767;45.636;11.756;2023-09-07T15:03:01;35.80;29.10
73137;DHT22;67767;45.636;11.756;2023-09-07T15:05:27;35.30;28.90
73137;DHT22;67767;45.636;11.756;2023-09-07T15:07:54;35.00;29.20
73137;DHT22;67767;45.636;11.756;2023-09-07T15:10:19;34.50;30.50
73137;DHT22;67767;45.636;11.756;2023-09-07T15:12:45;34.30;30.90